sensor_id;sensor_type;location;lat;lon;timestamp;P1;durP1;ratioP1;P2;durP2;ratioP2
43042;SDS011;28667;50.758;6.096;2023-03-26T00:01:53;3.10;;;0.93;;
43042;SDS011;28667;50.758;6.096;2023-03-26T00:04:19;4.75;;;0.90;;
43042;SDS011;28667;50.758;6.096;2023-03-26T00:06:46;5.20;;;1.20;;
43042;SDS011;28667;50.758;6.096;2023-03-26T00:09:13;9.68;;;1.52;;
43042;SDS011;28667;50.758;6.096;2023-03-26T00:11:40;3.78;;;1.08;;
43042;SDS011;28667;50.758;6.096;2023-03-26T00:14:07;6.75;;;1.38;;
43042;SDS011;28667;50.758;6.096;2023-03-26T00:16:37;8.27;;;1.00;;
43042;SDS011;28667;50.758;6.096;2023-03-26T00:19:04;5.30;;;1.08;;
43042;SDS011;28667;50.758;6.096;2023-03-26T00:21:30;5.15;;;1.42;;
43042;SDS011;28667;50.758;6.096;2023-03-26T00:23:56;6.32;;;1.45;;
43042;SDS011;28667;50.758;6.096;2023-03-26T00:26:29;9.75;;;1.13;;
43042;SDS011;28667;50.758;6.096;2023-03-26T00:28:56;7.60;;;1.10;;
43042;SDS011;28667;50.758;6.096;2023-03-26T00:31:22;6.22;;;1.55;;
43042;SDS011;28667;50.758;6.096;2023-03-26T00:33:49;5.32;;;0.98;;
43042;SDS011;28667;50.758;6.096;2023-03-26T00:36:18;3.95;;;1.02;;
43042;SDS011;28667;50.758;6.096;2023-03-26T00:38:44;6.47;;;2.17;;
43042;SDS011;28667;50.758;6.096;2023-03-26T00:41:12;6.35;;;1.38;;
43042;SDS011;28667;50.758;6.096;2023-03-26T00:43:45;4.25;;;1.58;;
43042;SDS011;28667;50.758;6.096;2023-03-26T00:46:11;7.72;;;1.85;;
43042;SDS011;28667;50.758;6.096;2023-03-26T00:48:37;4.53;;;0.80;;
43042;SDS011;28667;50.758;6.096;2023-03-26T00:51:03;3.53;;;1.15;;
43042;SDS011;28667;50.758;6.096;2023-03-26T00:53:30;10.15;;;1.30;;
43042;SDS011;28667;50.758;6.096;2023-03-26T00:55:56;6.05;;;1.38;;
43042;SDS011;28667;50.758;6.096;2023-03-26T00:58:27;4.55;;;1.42;;
43042;SDS011;28667;50.758;6.096;2023-03-26T01:00:58;9.00;;;1.92;;
43042;SDS011;28667;50.758;6.096;2023-03-26T01:03:30;8.50;;;1.20;;
43042;SDS011;28667;50.758;6.096;2023-03-26T01:11:39;1.98;;;1.10;;
43042;SDS011;28667;50.758;6.096;2023-03-26T01:14:09;2.92;;;1.00;;
43042;SDS011;28667;50.758;6.096;2023-03-26T01:19:30;7.03;;;1.08;;
43042;SDS011;28667;50.758;6.096;2023-03-26T01:22:04;13.38;;;1.40;;
43042;SDS011;28667;50.758;6.096;2023-03-26T01:24:35;1.42;;;0.95;;
43042;SDS011;28667;50.758;6.096;2023-03-26T01:27:03;8.43;;;1.20;;
43042;SDS011;28667;50.758;6.096;2023-03-26T01:34:45;4.35;;;0.88;;
43042;SDS011;28667;50.758;6.096;2023-03-26T01:39:57;3.45;;;1.00;;
43042;SDS011;28667;50.758;6.096;2023-03-26T01:42:34;9.55;;;1.40;;
43042;SDS011;28667;50.758;6.096;2023-03-26T01:45:08;4.25;;;1.02;;
43042;SDS011;28667;50.758;6.096;2023-03-26T01:47:39;4.00;;;0.70;;
43042;SDS011;28667;50.758;6.096;2023-03-26T01:50:07;3.42;;;1.00;;
43042;SDS011;28667;50.758;6.096;2023-03-26T01:52:33;6.53;;;1.17;;
43042;SDS011;28667;50.758;6.096;2023-03-26T01:54:59;4.20;;;1.02;;
43042;SDS011;28667;50.758;6.096;2023-03-26T01:57:34;7.93;;;1.15;;
43042;SDS011;28667;50.758;6.096;2023-03-26T02:03:04;5.10;;;1.60;;
43042;SDS011;28667;50.758;6.096;2023-03-26T02:08:41;10.77;;;1.00;;
43042;SDS011;28667;50.758;6.096;2023-03-26T02:11:29;6.20;;;1.05;;
43042;SDS011;28667;50.758;6.096;2023-03-26T02:13:55;4.75;;;0.80;;
43042;SDS011;28667;50.758;6.096;2023-03-26T02:16:22;8.20;;;1.08;;
43042;SDS011;28667;50.758;6.096;2023-03-26T02:18:48;4.80;;;0.90;;
43042;SDS011;28667;50.758;6.096;2023-03-26T02:21:20;5.30;;;0.93;;
43042;SDS011;28667;50.758;6.096;2023-03-26T02:23:48;7.50;;;1.23;;
43042;SDS011;28667;50.758;6.096;2023-03-26T02:28:56;2.22;;;0.80;;
43042;SDS011;28667;50.758;6.096;2023-03-26T02:31:22;3.20;;;1.08;;
43042;SDS011;28667;50.758;6.096;2023-03-26T02:33:51;7.95;;;0.95;;
43042;SDS011;28667;50.758;6.096;2023-03-26T02:36:18;4.80;;;1.02;;
43042;SDS011;28667;50.758;6.096;2023-03-26T02:38:46;2.67;;;0.93;;
43042;SDS011;28667;50.758;6.096;2023-03-26T02:41:13;5.10;;;1.13;;
43042;SDS011;28667;50.758;6.096;2023-03-26T02:43:59;5.03;;;1.40;;
43042;SDS011;28667;50.758;6.096;2023-03-26T02:46:45;2.85;;;0.70;;
43042;SDS011;28667;50.758;6.096;2023-03-26T02:49:37;6.00;;;1.33;;
43042;SDS011;28667;50.758;6.096;2023-03-26T02:52:02;5.85;;;1.30;;
43042;SDS011;28667;50.758;6.096;2023-03-26T02:54:32;5.10;;;1.00;;
43042;SDS011;28667;50.758;6.096;2023-03-26T02:57:16;4.68;;;1.00;;
43042;SDS011;28667;50.758;6.096;2023-03-26T02:59:50;6.55;;;1.08;;
43042;SDS011;28667;50.758;6.096;2023-03-26T03:02:34;8.50;;;0.90;;
43042;SDS011;28667;50.758;6.096;2023-03-26T03:05:22;6.65;;;1.23;;
43042;SDS011;28667;50.758;6.096;2023-03-26T03:08:12;1.92;;;0.70;;
43042;SDS011;28667;50.758;6.096;2023-03-26T03:10:59;1.52;;;0.80;;
43042;SDS011;28667;50.758;6.096;2023-03-26T03:13:37;8.68;;;0.93;;
43042;SDS011;28667;50.758;6.096;2023-03-26T03:16:03;3.90;;;0.65;;
43042;SDS011;28667;50.758;6.096;2023-03-26T03:18:29;2.85;;;0.88;;
43042;SDS011;28667;50.758;6.096;2023-03-26T03:20:56;6.18;;;1.13;;
43042;SDS011;28667;50.758;6.096;2023-03-26T03:23:21;7.13;;;1.15;;
43042;SDS011;28667;50.758;6.096;2023-03-26T03:25:53;5.05;;;1.00;;
43042;SDS011;28667;50.758;6.096;2023-03-26T03:28:22;5.10;;;0.90;;
43042;SDS011;28667;50.758;6.096;2023-03-26T03:30:49;10.35;;;0.90;;
43042;SDS011;28667;50.758;6.096;2023-03-26T03:33:27;3.47;;;0.88;;
43042;SDS011;28667;50.758;6.096;2023-03-26T03:35:52;1.83;;;0.68;;
43042;SDS011;28667;50.758;6.096;2023-03-26T03:38:19;2.33;;;0.52;;
43042;SDS011;28667;50.758;6.096;2023-03-26T03:40:47;2.28;;;0.50;;
43042;SDS011;28667;50.758;6.096;2023-03-26T03:43:14;1.05;;;0.68;;
43042;SDS011;28667;50.758;6.096;2023-03-26T03:45:53;1.33;;;0.60;;
43042;SDS011;28667;50.758;6.096;2023-03-26T03:48:37;4.72;;;0.93;;
43042;SDS011;28667;50.758;6.096;2023-03-26T03:51:04;1.45;;;1.02;;
43042;SDS011;28667;50.758;6.096;2023-03-26T03:53:41;7.57;;;1.00;;
43042;SDS011;28667;50.758;6.096;2023-03-26T03:56:08;8.90;;;1.02;;
43042;SDS011;28667;50.758;6.096;2023-03-26T03:58:53;1.98;;;0.77;;
43042;SDS011;28667;50.758;6.096;2023-03-26T04:01:28;5.70;;;0.75;;
43042;SDS011;28667;50.758;6.096;2023-03-26T04:04:00;2.30;;;0.80;;
43042;SDS011;28667;50.758;6.096;2023-03-26T04:06:39;4.50;;;0.98;;
43042;SDS011;28667;50.758;6.096;2023-03-26T04:09:07;4.10;;;0.85;;
43042;SDS011;28667;50.758;6.096;2023-03-26T04:11:35;3.00;;;0.60;;
43042;SDS011;28667;50.758;6.096;2023-03-26T04:14:13;9.18;;;0.90;;
43042;SDS011;28667;50.758;6.096;2023-03-26T04:16:53;3.65;;;0.55;;
43042;SDS011;28667;50.758;6.096;2023-03-26T04:19:21;3.72;;;0.85;;
43042;SDS011;28667;50.758;6.096;2023-03-26T04:21:47;4.15;;;1.20;;
43042;SDS011;28667;50.758;6.096;2023-03-26T04:24:17;4.15;;;0.88;;
43042;SDS011;28667;50.758;6.096;2023-03-26T04:27:04;3.38;;;1.10;;
43042;SDS011;28667;50.758;6.096;2023-03-26T04:29:37;4.80;;;0.77;;
43042;SDS011;28667;50.758;6.096;2023-03-26T04:32:22;2.63;;;0.60;;
43042;SDS011;28667;50.758;6.096;2023-03-26T04:34:59;5.50;;;0.85;;
43042;SDS011;28667;50.758;6.096;2023-03-26T04:37:35;3.22;;;0.55;;
43042;SDS011;28667;50.758;6.096;2023-03-26T04:40:15;3.25;;;0.93;;
43042;SDS011;28667;50.758;6.096;2023-03-26T04:43:02;8.98;;;0.90;;
43042;SDS011;28667;50.758;6.096;2023-03-26T04:45:47;3.20;;;0.85;;
43042;SDS011;28667;50.758;6.096;2023-03-26T04:48:13;5.43;;;0.85;;
43042;SDS011;28667;50.758;6.096;2023-03-26T04:50:42;0.50;;;0.40;;
43042;SDS011;28667;50.758;6.096;2023-03-26T04:53:14;6.68;;;0.90;;
43042;SDS011;28667;50.758;6.096;2023-03-26T04:59:19;4.30;;;0.60;;
43042;SDS011;28667;50.758;6.096;2023-03-26T05:01:52;2.70;;;0.68;;
43042;SDS011;28667;50.758;6.096;2023-03-26T05:04:20;4.47;;;0.82;;
43042;SDS011;28667;50.758;6.096;2023-03-26T05:06:46;5.80;;;0.80;;
43042;SDS011;28667;50.758;6.096;2023-03-26T05:09:29;4.13;;;1.08;;
43042;SDS011;28667;50.758;6.096;2023-03-26T05:12:15;1.05;;;0.55;;
43042;SDS011;28667;50.758;6.096;2023-03-26T05:15:10;5.28;;;1.08;;
43042;SDS011;28667;50.758;6.096;2023-03-26T05:18:02;3.13;;;0.88;;
43042;SDS011;28667;50.758;6.096;2023-03-26T05:20:34;3.60;;;1.02;;
43042;SDS011;28667;50.758;6.096;2023-03-26T05:23:02;2.47;;;0.70;;
43042;SDS011;28667;50.758;6.096;2023-03-26T05:25:31;2.88;;;1.02;;
43042;SDS011;28667;50.758;6.096;2023-03-26T05:28:00;3.70;;;0.85;;
43042;SDS011;28667;50.758;6.096;2023-03-26T05:30:34;3.03;;;1.13;;
43042;SDS011;28667;50.758;6.096;2023-03-26T05:33:01;2.83;;;1.02;;
43042;SDS011;28667;50.758;6.096;2023-03-26T05:35:35;5.22;;;1.40;;
43042;SDS011;28667;50.758;6.096;2023-03-26T05:38:02;1.52;;;0.73;;
43042;SDS011;28667;50.758;6.096;2023-03-26T05:40:28;4.57;;;1.15;;
43042;SDS011;28667;50.758;6.096;2023-03-26T05:42:57;7.20;;;1.63;;
43042;SDS011;28667;50.758;6.096;2023-03-26T05:45:28;3.55;;;1.02;;
43042;SDS011;28667;50.758;6.096;2023-03-26T05:47:56;3.28;;;0.93;;
43042;SDS011;28667;50.758;6.096;2023-03-26T05:50:24;6.13;;;1.83;;
43042;SDS011;28667;50.758;6.096;2023-03-26T05:52:53;4.70;;;0.80;;
43042;SDS011;28667;50.758;6.096;2023-03-26T05:55:46;4.10;;;0.90;;
43042;SDS011;28667;50.758;6.096;2023-03-26T05:58:51;2.67;;;1.00;;
43042;SDS011;28667;50.758;6.096;2023-03-26T06:01:39;1.77;;;0.90;;
43042;SDS011;28667;50.758;6.096;2023-03-26T06:04:14;4.85;;;1.10;;
43042;SDS011;28667;50.758;6.096;2023-03-26T06:06:49;4.75;;;1.15;;
43042;SDS011;28667;50.758;6.096;2023-03-26T06:09:16;3.78;;;1.20;;
43042;SDS011;28667;50.758;6.096;2023-03-26T06:11:43;3.33;;;0.95;;
43042;SDS011;28667;50.758;6.096;2023-03-26T06:14:09;1.30;;;0.90;;
43042;SDS011;28667;50.758;6.096;2023-03-26T06:16:40;4.15;;;1.15;;
43042;SDS011;28667;50.758;6.096;2023-03-26T06:19:18;2.33;;;1.10;;
43042;SDS011;28667;50.758;6.096;2023-03-26T06:21:56;2.50;;;1.15;;
43042;SDS011;28667;50.758;6.096;2023-03-26T06:24:28;1.98;;;1.02;;
43042;SDS011;28667;50.758;6.096;2023-03-26T06:27:20;3.33;;;0.93;;
43042;SDS011;28667;50.758;6.096;2023-03-26T06:29:48;4.07;;;0.70;;
43042;SDS011;28667;50.758;6.096;2023-03-26T06:32:32;3.35;;;0.80;;
43042;SDS011;28667;50.758;6.096;2023-03-26T06:35:06;2.05;;;0.73;;
43042;SDS011;28667;50.758;6.096;2023-03-26T06:37:32;2.72;;;0.43;;
43042;SDS011;28667;50.758;6.096;2023-03-26T06:40:00;0.77;;;0.50;;
43042;SDS011;28667;50.758;6.096;2023-03-26T06:43:01;1.65;;;0.80;;
43042;SDS011;28667;50.758;6.096;2023-03-26T06:45:49;6.35;;;0.70;;
43042;SDS011;28667;50.758;6.096;2023-03-26T06:51:16;3.58;;;0.80;;
43042;SDS011;28667;50.758;6.096;2023-03-26T06:54:11;2.70;;;0.20;;
43042;SDS011;28667;50.758;6.096;2023-03-26T06:56:48;0.70;;;0.47;;
43042;SDS011;28667;50.758;6.096;2023-03-26T06:59:36;3.22;;;0.85;;
43042;SDS011;28667;50.758;6.096;2023-03-26T07:02:31;1.40;;;0.85;;
43042;SDS011;28667;50.758;6.096;2023-03-26T07:05:15;0.20;;;0.20;;
43042;SDS011;28667;50.758;6.096;2023-03-26T07:08:01;4.10;;;0.67;;
43042;SDS011;28667;50.758;6.096;2023-03-26T07:10:45;2.30;;;0.52;;
43042;SDS011;28667;50.758;6.096;2023-03-26T07:13:31;1.77;;;0.57;;
43042;SDS011;28667;50.758;6.096;2023-03-26T07:16:15;3.33;;;0.60;;
43042;SDS011;28667;50.758;6.096;2023-03-26T07:18:55;1.10;;;0.60;;
43042;SDS011;28667;50.758;6.096;2023-03-26T07:21:24;5.38;;;0.68;;
43042;SDS011;28667;50.758;6.096;2023-03-26T07:23:51;3.60;;;0.95;;
43042;SDS011;28667;50.758;6.096;2023-03-26T07:26:37;1.35;;;0.90;;
43042;SDS011;28667;50.758;6.096;2023-03-26T07:35:37;0.77;;;0.30;;
43042;SDS011;28667;50.758;6.096;2023-03-26T07:44:46;4.40;;;0.88;;
43042;SDS011;28667;50.758;6.096;2023-03-26T07:47:58;1.02;;;0.70;;
43042;SDS011;28667;50.758;6.096;2023-03-26T07:50:37;1.15;;;0.95;;
43042;SDS011;28667;50.758;6.096;2023-03-26T07:53:21;5.72;;;0.60;;
43042;SDS011;28667;50.758;6.096;2023-03-26T07:56:19;3.97;;;1.20;;
43042;SDS011;28667;50.758;6.096;2023-03-26T08:05:26;4.10;;;0.90;;
43042;SDS011;28667;50.758;6.096;2023-03-26T08:08:18;3.40;;;0.43;;
43042;SDS011;28667;50.758;6.096;2023-03-26T08:11:26;2.80;;;1.08;;
43042;SDS011;28667;50.758;6.096;2023-03-26T08:17:12;6.30;;;0.90;;
43042;SDS011;28667;50.758;6.096;2023-03-26T08:22:41;1.00;;;0.38;;
43042;SDS011;28667;50.758;6.096;2023-03-26T08:30:37;4.32;;;0.70;;
43042;SDS011;28667;50.758;6.096;2023-03-26T08:33:09;1.67;;;0.85;;
43042;SDS011;28667;50.758;6.096;2023-03-26T08:38:08;0.85;;;0.63;;
43042;SDS011;28667;50.758;6.096;2023-03-26T08:46:06;3.50;;;0.70;;
43042;SDS011;28667;50.758;6.096;2023-03-26T09:06:45;0.90;;;0.77;;
43042;SDS011;28667;50.758;6.096;2023-03-26T09:53:06;0.47;;;0.47;;
43042;SDS011;28667;50.758;6.096;2023-03-26T10:06:29;0.28;;;0.28;;
43042;SDS011;28667;50.758;6.096;2023-03-26T10:27:58;0.00;;;0.00;;
43042;SDS011;28667;50.758;6.096;2023-03-26T10:33:49;0.00;;;0.00;;
43042;SDS011;28667;50.758;6.096;2023-03-26T10:36:33;0.00;;;0.00;;
43042;SDS011;28667;50.758;6.096;2023-03-26T10:56:39;0.13;;;0.00;;
43042;SDS011;28667;50.758;6.096;2023-03-26T10:59:11;0.00;;;0.00;;
43042;SDS011;28667;50.758;6.096;2023-03-26T11:06:49;0.10;;;0.10;;
43042;SDS011;28667;50.758;6.096;2023-03-26T11:12:41;0.00;;;0.00;;
43042;SDS011;28667;50.758;6.096;2023-03-26T11:23:08;0.10;;;0.10;;
43042;SDS011;28667;50.758;6.096;2023-03-26T11:33:57;0.10;;;0.10;;
43042;SDS011;28667;50.758;6.096;2023-03-26T11:36:30;0.00;;;0.00;;
43042;SDS011;28667;50.758;6.096;2023-03-26T11:39:01;0.13;;;0.13;;
43042;SDS011;28667;50.758;6.096;2023-03-26T11:41:34;0.17;;;0.15;;
43042;SDS011;28667;50.758;6.096;2023-03-26T11:44:23;0.10;;;0.10;;
43042;SDS011;28667;50.758;6.096;2023-03-26T11:47:00;0.75;;;0.20;;
43042;SDS011;28667;50.758;6.096;2023-03-26T11:49:28;0.30;;;0.20;;
43042;SDS011;28667;50.758;6.096;2023-03-26T11:51:55;0.30;;;0.30;;
43042;SDS011;28667;50.758;6.096;2023-03-26T11:54:21;0.45;;;0.20;;
43042;SDS011;28667;50.758;6.096;2023-03-26T11:56:51;0.47;;;0.22;;
43042;SDS011;28667;50.758;6.096;2023-03-26T12:02:22;0.43;;;0.40;;
43042;SDS011;28667;50.758;6.096;2023-03-26T12:05:02;0.80;;;0.25;;
43042;SDS011;28667;50.758;6.096;2023-03-26T12:10:24;0.30;;;0.20;;
43042;SDS011;28667;50.758;6.096;2023-03-26T12:12:55;0.20;;;0.20;;
43042;SDS011;28667;50.758;6.096;2023-03-26T12:15:24;0.20;;;0.20;;
43042;SDS011;28667;50.758;6.096;2023-03-26T12:17:55;1.25;;;0.38;;
43042;SDS011;28667;50.758;6.096;2023-03-26T12:22:59;0.50;;;0.30;;
43042;SDS011;28667;50.758;6.096;2023-03-26T12:25:29;0.52;;;0.40;;
43042;SDS011;28667;50.758;6.096;2023-03-26T12:30:34;0.40;;;0.40;;
43042;SDS011;28667;50.758;6.096;2023-03-26T12:33:12;0.30;;;0.30;;
43042;SDS011;28667;50.758;6.096;2023-03-26T12:35:59;0.33;;;0.33;;
43042;SDS011;28667;50.758;6.096;2023-03-26T12:38:53;0.40;;;0.40;;
43042;SDS011;28667;50.758;6.096;2023-03-26T12:41:20;0.75;;;0.68;;
43042;SDS011;28667;50.758;6.096;2023-03-26T12:44:21;0.60;;;0.60;;
43042;SDS011;28667;50.758;6.096;2023-03-26T12:47:05;0.60;;;0.60;;
43042;SDS011;28667;50.758;6.096;2023-03-26T12:49:39;0.45;;;0.32;;
43042;SDS011;28667;50.758;6.096;2023-03-26T12:57:38;0.50;;;0.50;;
43042;SDS011;28667;50.758;6.096;2023-03-26T13:00:39;0.45;;;0.45;;
43042;SDS011;28667;50.758;6.096;2023-03-26T13:09:12;0.47;;;0.38;;
43042;SDS011;28667;50.758;6.096;2023-03-26T13:20:56;0.90;;;0.20;;
43042;SDS011;28667;50.758;6.096;2023-03-26T13:23:42;0.40;;;0.40;;
43042;SDS011;28667;50.758;6.096;2023-03-26T13:42:41;0.63;;;0.45;;
43042;SDS011;28667;50.758;6.096;2023-03-26T13:48:07;0.75;;;0.32;;
43042;SDS011;28667;50.758;6.096;2023-03-26T13:51:08;0.45;;;0.43;;
43042;SDS011;28667;50.758;6.096;2023-03-26T13:53:46;0.30;;;0.30;;
43042;SDS011;28667;50.758;6.096;2023-03-26T13:56:19;0.52;;;0.40;;
43042;SDS011;28667;50.758;6.096;2023-03-26T13:59:02;1.25;;;0.40;;
43042;SDS011;28667;50.758;6.096;2023-03-26T14:01:38;0.43;;;0.32;;
43042;SDS011;28667;50.758;6.096;2023-03-26T14:04:13;0.40;;;0.40;;
43042;SDS011;28667;50.758;6.096;2023-03-26T14:09:46;0.30;;;0.28;;
43042;SDS011;28667;50.758;6.096;2023-03-26T14:34:10;1.30;;;0.50;;
43042;SDS011;28667;50.758;6.096;2023-03-26T14:37:02;0.65;;;0.38;;
43042;SDS011;28667;50.758;6.096;2023-03-26T14:46:04;2.05;;;0.70;;
43042;SDS011;28667;50.758;6.096;2023-03-26T14:54:12;2.85;;;1.70;;
43042;SDS011;28667;50.758;6.096;2023-03-26T15:12:53;2.10;;;1.90;;
43042;SDS011;28667;50.758;6.096;2023-03-26T15:38:22;1.30;;;1.20;;
43042;SDS011;28667;50.758;6.096;2023-03-26T15:49:09;1.67;;;1.55;;
43042;SDS011;28667;50.758;6.096;2023-03-26T15:52:04;1.63;;;1.50;;
43042;SDS011;28667;50.758;6.096;2023-03-26T15:54:51;0.95;;;0.88;;
43042;SDS011;28667;50.758;6.096;2023-03-26T15:57:29;1.58;;;1.48;;
43042;SDS011;28667;50.758;6.096;2023-03-26T16:05:29;1.48;;;1.38;;
43042;SDS011;28667;50.758;6.096;2023-03-26T16:08:02;2.08;;;1.88;;
43042;SDS011;28667;50.758;6.096;2023-03-26T16:10:37;5.07;;;1.80;;
43042;SDS011;28667;50.758;6.096;2023-03-26T16:15:42;2.97;;;1.50;;
43042;SDS011;28667;50.758;6.096;2023-03-26T16:18:16;1.75;;;1.65;;
43042;SDS011;28667;50.758;6.096;2023-03-26T16:26:43;1.77;;;1.30;;
43042;SDS011;28667;50.758;6.096;2023-03-26T16:29:21;2.22;;;1.80;;
43042;SDS011;28667;50.758;6.096;2023-03-26T16:34:28;2.42;;;1.75;;
43042;SDS011;28667;50.758;6.096;2023-03-26T16:37:04;1.95;;;1.48;;
43042;SDS011;28667;50.758;6.096;2023-03-26T16:39:50;1.65;;;1.33;;
43042;SDS011;28667;50.758;6.096;2023-03-26T16:50:55;1.38;;;1.27;;
43042;SDS011;28667;50.758;6.096;2023-03-26T16:53:54;2.78;;;1.38;;
43042;SDS011;28667;50.758;6.096;2023-03-26T17:13:47;1.35;;;1.23;;
43042;SDS011;28667;50.758;6.096;2023-03-26T17:16:39;2.20;;;1.85;;
43042;SDS011;28667;50.758;6.096;2023-03-26T17:22:09;3.53;;;2.10;;
43042;SDS011;28667;50.758;6.096;2023-03-26T17:41:03;5.03;;;2.90;;
43042;SDS011;28667;50.758;6.096;2023-03-26T17:43:46;3.85;;;3.28;;
43042;SDS011;28667;50.758;6.096;2023-03-26T17:46:27;4.35;;;2.78;;
43042;SDS011;28667;50.758;6.096;2023-03-26T17:49:18;3.63;;;2.85;;
43042;SDS011;28667;50.758;6.096;2023-03-26T17:54:33;3.55;;;2.63;;
43042;SDS011;28667;50.758;6.096;2023-03-26T17:57:12;7.93;;;3.22;;
43042;SDS011;28667;50.758;6.096;2023-03-26T17:59:44;6.55;;;2.90;;
43042;SDS011;28667;50.758;6.096;2023-03-26T18:02:15;12.60;;;3.30;;
43042;SDS011;28667;50.758;6.096;2023-03-26T18:04:45;6.53;;;3.10;;
43042;SDS011;28667;50.758;6.096;2023-03-26T18:18:50;4.57;;;3.63;;
43042;SDS011;28667;50.758;6.096;2023-03-26T18:23:57;7.50;;;3.40;;
43042;SDS011;28667;50.758;6.096;2023-03-26T18:26:32;7.00;;;3.15;;
43042;SDS011;28667;50.758;6.096;2023-03-26T18:31:59;9.18;;;3.33;;
43042;SDS011;28667;50.758;6.096;2023-03-26T18:34:29;8.05;;;3.53;;
43042;SDS011;28667;50.758;6.096;2023-03-26T18:39:41;11.43;;;2.63;;
43042;SDS011;28667;50.758;6.096;2023-03-26T18:42:21;7.63;;;1.95;;
43042;SDS011;28667;50.758;6.096;2023-03-26T18:44:48;3.75;;;2.05;;
43042;SDS011;28667;50.758;6.096;2023-03-26T18:47:16;4.35;;;1.92;;
43042;SDS011;28667;50.758;6.096;2023-03-26T18:49:46;11.25;;;2.33;;
43042;SDS011;28667;50.758;6.096;2023-03-26T18:52:15;4.45;;;1.80;;
43042;SDS011;28667;50.758;6.096;2023-03-26T18:54:45;9.32;;;1.88;;
43042;SDS011;28667;50.758;6.096;2023-03-26T18:57:18;7.05;;;1.58;;
43042;SDS011;28667;50.758;6.096;2023-03-26T18:59:47;8.00;;;1.98;;
43042;SDS011;28667;50.758;6.096;2023-03-26T19:02:15;6.18;;;1.60;;
43042;SDS011;28667;50.758;6.096;2023-03-26T19:04:42;5.30;;;1.77;;
43042;SDS011;28667;50.758;6.096;2023-03-26T19:07:13;4.72;;;1.30;;
43042;SDS011;28667;50.758;6.096;2023-03-26T19:09:42;2.92;;;1.45;;
43042;SDS011;28667;50.758;6.096;2023-03-26T19:12:15;4.68;;;2.88;;
43042;SDS011;28667;50.758;6.096;2023-03-26T19:15:00;4.75;;;1.77;;
43042;SDS011;28667;50.758;6.096;2023-03-26T19:17:38;7.03;;;1.63;;
43042;SDS011;28667;50.758;6.096;2023-03-26T19:20:24;5.03;;;1.80;;
43042;SDS011;28667;50.758;6.096;2023-03-26T19:22:52;4.28;;;1.58;;
43042;SDS011;28667;50.758;6.096;2023-03-26T19:25:24;5.07;;;2.38;;
43042;SDS011;28667;50.758;6.096;2023-03-26T19:27:57;8.35;;;1.77;;
43042;SDS011;28667;50.758;6.096;2023-03-26T19:30:29;8.93;;;1.92;;
43042;SDS011;28667;50.758;6.096;2023-03-26T19:33:03;12.02;;;1.85;;
43042;SDS011;28667;50.758;6.096;2023-03-26T19:35:38;12.55;;;1.95;;
43042;SDS011;28667;50.758;6.096;2023-03-26T19:40:48;6.25;;;1.70;;
43042;SDS011;28667;50.758;6.096;2023-03-26T19:43:18;5.00;;;2.50;;
43042;SDS011;28667;50.758;6.096;2023-03-26T19:45:44;7.28;;;1.75;;
43042;SDS011;28667;50.758;6.096;2023-03-26T19:48:13;6.00;;;1.92;;
43042;SDS011;28667;50.758;6.096;2023-03-26T19:50:50;7.18;;;1.65;;
43042;SDS011;28667;50.758;6.096;2023-03-26T19:53:28;8.65;;;1.90;;
43042;SDS011;28667;50.758;6.096;2023-03-26T19:58:39;3.38;;;1.33;;
43042;SDS011;28667;50.758;6.096;2023-03-26T20:01:09;11.13;;;1.65;;
43042;SDS011;28667;50.758;6.096;2023-03-26T20:03:42;11.38;;;2.10;;
43042;SDS011;28667;50.758;6.096;2023-03-26T20:06:14;14.85;;;2.42;;
43042;SDS011;28667;50.758;6.096;2023-03-26T20:08:42;9.00;;;1.60;;
43042;SDS011;28667;50.758;6.096;2023-03-26T20:11:15;7.72;;;1.85;;
43042;SDS011;28667;50.758;6.096;2023-03-26T20:13:47;12.48;;;1.70;;
43042;SDS011;28667;50.758;6.096;2023-03-26T20:16:24;11.25;;;1.80;;
43042;SDS011;28667;50.758;6.096;2023-03-26T20:18:52;6.53;;;1.88;;
43042;SDS011;28667;50.758;6.096;2023-03-26T20:21:21;7.68;;;1.88;;
43042;SDS011;28667;50.758;6.096;2023-03-26T20:23:49;8.82;;;1.55;;
43042;SDS011;28667;50.758;6.096;2023-03-26T20:26:17;9.38;;;1.98;;
43042;SDS011;28667;50.758;6.096;2023-03-26T20:28:43;5.10;;;1.45;;
43042;SDS011;28667;50.758;6.096;2023-03-26T20:31:13;13.80;;;1.30;;
43042;SDS011;28667;50.758;6.096;2023-03-26T20:33:41;5.70;;;1.35;;
43042;SDS011;28667;50.758;6.096;2023-03-26T20:36:10;5.50;;;1.33;;
43042;SDS011;28667;50.758;6.096;2023-03-26T20:38:40;7.18;;;1.48;;
43042;SDS011;28667;50.758;6.096;2023-03-26T20:41:14;5.40;;;1.45;;
43042;SDS011;28667;50.758;6.096;2023-03-26T20:43:42;5.95;;;1.58;;
43042;SDS011;28667;50.758;6.096;2023-03-26T20:46:14;6.53;;;1.52;;
43042;SDS011;28667;50.758;6.096;2023-03-26T20:48:43;2.78;;;1.05;;
43042;SDS011;28667;50.758;6.096;2023-03-26T20:51:10;2.65;;;1.10;;
43042;SDS011;28667;50.758;6.096;2023-03-26T20:53:41;7.18;;;1.65;;
43042;SDS011;28667;50.758;6.096;2023-03-26T20:56:11;5.38;;;1.17;;
43042;SDS011;28667;50.758;6.096;2023-03-26T20:58:40;3.92;;;1.35;;
43042;SDS011;28667;50.758;6.096;2023-03-26T21:01:10;5.43;;;1.23;;
43042;SDS011;28667;50.758;6.096;2023-03-26T21:03:37;2.10;;;0.98;;
43042;SDS011;28667;50.758;6.096;2023-03-26T21:06:04;18.70;;;1.52;;
43042;SDS011;28667;50.758;6.096;2023-03-26T21:08:37;8.23;;;1.55;;
43042;SDS011;28667;50.758;6.096;2023-03-26T21:11:04;3.78;;;0.77;;
43042;SDS011;28667;50.758;6.096;2023-03-26T21:14:08;5.50;;;1.05;;
43042;SDS011;28667;50.758;6.096;2023-03-26T21:16:49;5.70;;;0.60;;
43042;SDS011;28667;50.758;6.096;2023-03-26T21:19:15;1.48;;;0.80;;
43042;SDS011;28667;50.758;6.096;2023-03-26T21:21:50;7.43;;;1.27;;
43042;SDS011;28667;50.758;6.096;2023-03-26T21:29:42;2.50;;;0.88;;
43042;SDS011;28667;50.758;6.096;2023-03-26T21:32:09;2.58;;;0.98;;
43042;SDS011;28667;50.758;6.096;2023-03-26T21:34:36;3.20;;;0.70;;
43042;SDS011;28667;50.758;6.096;2023-03-26T21:37:03;5.57;;;1.05;;
43042;SDS011;28667;50.758;6.096;2023-03-26T21:39:29;3.13;;;0.57;;
43042;SDS011;28667;50.758;6.096;2023-03-26T21:41:55;3.47;;;0.52;;
43042;SDS011;28667;50.758;6.096;2023-03-26T21:44:21;5.40;;;0.82;;
43042;SDS011;28667;50.758;6.096;2023-03-26T21:46:47;5.50;;;1.00;;
43042;SDS011;28667;50.758;6.096;2023-03-26T21:49:14;7.25;;;0.90;;
43042;SDS011;28667;50.758;6.096;2023-03-26T21:51:41;6.30;;;1.20;;
43042;SDS011;28667;50.758;6.096;2023-03-26T21:54:21;3.55;;;0.70;;
43042;SDS011;28667;50.758;6.096;2023-03-26T21:59:22;4.10;;;0.75;;
43042;SDS011;28667;50.758;6.096;2023-03-26T22:10:17;5.07;;;0.70;;
43042;SDS011;28667;50.758;6.096;2023-03-26T22:12:43;1.63;;;0.60;;
43042;SDS011;28667;50.758;6.096;2023-03-26T22:15:08;4.32;;;0.65;;
43042;SDS011;28667;50.758;6.096;2023-03-26T22:17:38;8.25;;;1.30;;
43042;SDS011;28667;50.758;6.096;2023-03-26T22:20:06;7.47;;;0.70;;
43042;SDS011;28667;50.758;6.096;2023-03-26T22:22:33;1.65;;;0.68;;
43042;SDS011;28667;50.758;6.096;2023-03-26T22:24:59;2.80;;;0.40;;
43042;SDS011;28667;50.758;6.096;2023-03-26T22:27:25;4.03;;;1.00;;
43042;SDS011;28667;50.758;6.096;2023-03-26T22:29:51;4.13;;;0.70;;
43042;SDS011;28667;50.758;6.096;2023-03-26T22:32:17;2.72;;;0.68;;
43042;SDS011;28667;50.758;6.096;2023-03-26T22:34:42;3.92;;;0.77;;
43042;SDS011;28667;50.758;6.096;2023-03-26T22:37:09;2.97;;;0.60;;
43042;SDS011;28667;50.758;6.096;2023-03-26T22:39:35;3.97;;;1.00;;
43042;SDS011;28667;50.758;6.096;2023-03-26T22:42:02;2.78;;;0.68;;
43042;SDS011;28667;50.758;6.096;2023-03-26T22:44:29;0.88;;;0.47;;
43042;SDS011;28667;50.758;6.096;2023-03-26T22:46:55;2.85;;;0.70;;
43042;SDS011;28667;50.758;6.096;2023-03-26T22:49:21;2.30;;;0.80;;
43042;SDS011;28667;50.758;6.096;2023-03-26T22:51:50;3.95;;;0.68;;
43042;SDS011;28667;50.758;6.096;2023-03-26T22:54:16;2.25;;;0.93;;
43042;SDS011;28667;50.758;6.096;2023-03-26T22:56:42;1.77;;;0.45;;